sensor_id;sensor_type;location;lat;lon;timestamp;pressure;altitude;pressure_sealevel;temperature;humidity
43312;BME280;30041;48.300;16.352;2023-01-20T00:02:11;99166.44;;;22.01;42.37
43312;BME280;30041;48.300;16.352;2023-01-20T00:04:37;99161.84;;;22.01;42.44
43312;BME280;30041;48.300;16.352;2023-01-20T00:07:02;99156.44;;;22.01;42.22
43312;BME280;30041;48.300;16.352;2023-01-20T00:09:28;99160.78;;;22.02;42.25
43312;BME280;30041;48.300;16.352;2023-01-20T00:11:53;99156.44;;;22.01;42.44
43312;BME280;30041;48.300;16.352;2023-01-20T00:14:19;99156.16;;;21.97;42.31
43312;BME280;30041;48.300;16.352;2023-01-20T00:16:45;99159.41;;;22.00;42.20
43312;BME280;30041;48.300;16.352;2023-01-20T00:19:13;99148.31;;;21.96;42.23
43312;BME280;30041;48.300;16.352;2023-01-20T00:21:39;99142.16;;;22.01;42.23
43312;BME280;30041;48.300;16.352;2023-01-20T00:24:05;99137.56;;;22.01;42.37
43312;BME280;30041;48.300;16.352;2023-01-20T00:26:31;99141.09;;;22.02;42.29
43312;BME280;30041;48.300;16.352;2023-01-20T00:28:57;99144.56;;;21.97;42.38
43312;BME280;30041;48.300;16.352;2023-01-20T00:31:24;99149.38;;;21.95;42.49
43312;BME280;30041;48.300;16.352;2023-01-20T00:33:51;99157.53;;;22.00;42.11
43312;BME280;30041;48.300;16.352;2023-01-20T00:36:19;99161.28;;;21.99;42.05
43312;BME280;30041;48.300;16.352;2023-01-20T00:38:45;99176.66;;;21.98;42.46
43312;BME280;30041;48.300;16.352;2023-01-20T00:41:11;99173.97;;;21.98;42.52
43312;BME280;30041;48.300;16.352;2023-01-20T00:43:37;99175.84;;;21.98;42.28
43312;BME280;30041;48.300;16.352;2023-01-20T00:46:04;99180.44;;;21.97;42.37
43312;BME280;30041;48.300;16.352;2023-01-20T00:48:30;99188.25;;;21.99;42.29
43312;BME280;30041;48.300;16.352;2023-01-20T00:50:55;99194.50;;;22.00;42.43
43312;BME280;30041;48.300;16.352;2023-01-20T00:53:21;99195.56;;;21.98;42.38
43312;BME280;30041;48.300;16.352;2023-01-20T00:55:46;99200.66;;;21.95;42.29
43312;BME280;30041;48.300;16.352;2023-01-20T00:58:12;99205.28;;;22.00;42.55
43312;BME280;30041;48.300;16.352;2023-01-20T01:00:37;99223.03;;;21.95;42.47
43312;BME280;30041;48.300;16.352;2023-01-20T01:03:03;99222.81;;;21.97;42.38
43312;BME280;30041;48.300;16.352;2023-01-20T01:05:29;99235.47;;;21.96;42.41
43312;BME280;30041;48.300;16.352;2023-01-20T01:07:56;99234.66;;;21.96;42.40
43312;BME280;30041;48.300;16.352;2023-01-20T01:10:22;99239.72;;;21.92;42.52
43312;BME280;30041;48.300;16.352;2023-01-20T01:12:47;99235.16;;;21.93;42.43
43312;BME280;30041;48.300;16.352;2023-01-20T01:15:13;99244.31;;;21.92;42.27
43312;BME280;30041;48.300;16.352;2023-01-20T01:17:41;99246.25;;;21.96;42.35
43312;BME280;30041;48.300;16.352;2023-01-20T01:20:08;99252.16;;;21.93;42.31
43312;BME280;30041;48.300;16.352;2023-01-20T01:22:34;99248.09;;;21.91;42.50
43312;BME280;30041;48.300;16.352;2023-01-20T01:24:59;99237.03;;;21.92;42.36
43312;BME280;30041;48.300;16.352;2023-01-20T01:27:27;99235.63;;;21.90;42.46
43312;BME280;30041;48.300;16.352;2023-01-20T01:29:52;99240.22;;;21.89;42.50
43312;BME280;30041;48.300;16.352;2023-01-20T01:32:17;99251.59;;;21.91;42.52
43312;BME280;30041;48.300;16.352;2023-01-20T01:34:43;99258.13;;;21.95;42.35
43312;BME280;30041;48.300;16.352;2023-01-20T01:37:08;99250.31;;;21.99;42.19
43312;BME280;30041;48.300;16.352;2023-01-20T01:39:34;99250.25;;;21.94;42.09
43312;BME280;30041;48.300;16.352;2023-01-20T01:41:59;99243.06;;;22.00;42.30
43312;BME280;30041;48.300;16.352;2023-01-20T01:44:26;99236.78;;;21.94;42.37
43312;BME280;30041;48.300;16.352;2023-01-20T01:46:51;99223.78;;;21.91;42.38
43312;BME280;30041;48.300;16.352;2023-01-20T01:49:22;99225.19;;;21.93;42.40
43312;BME280;30041;48.300;16.352;2023-01-20T01:51:57;99222.25;;;21.95;42.18
43312;BME280;30041;48.300;16.352;2023-01-20T01:54:26;99219.78;;;21.93;42.36
43312;BME280;30041;48.300;16.352;2023-01-20T01:56:54;99213.81;;;21.91;42.14
43312;BME280;30041;48.300;16.352;2023-01-20T01:59:20;99205.97;;;21.90;42.47
43312;BME280;30041;48.300;16.352;2023-01-20T02:01:49;99200.31;;;21.91;42.23
43312;BME280;30041;48.300;16.352;2023-01-20T02:04:21;99195.75;;;21.92;42.27
43312;BME280;30041;48.300;16.352;2023-01-20T02:07:03;99194.38;;;21.89;42.39
43312;BME280;30041;48.300;16.352;2023-01-20T02:09:30;99189.53;;;21.91;42.28
43312;BME280;30041;48.300;16.352;2023-01-20T02:11:59;99194.13;;;21.91;42.42
43312;BME280;30041;48.300;16.352;2023-01-20T02:14:30;99196.25;;;21.89;42.39
43312;BME280;30041;48.300;16.352;2023-01-20T02:20:42;99202.69;;;21.88;42.34
43312;BME280;30041;48.300;16.352;2023-01-20T02:26:14;99204.09;;;21.90;42.23
43312;BME280;30041;48.300;16.352;2023-01-20T02:32:37;99203.25;;;21.90;42.25
43312;BME280;30041;48.300;16.352;2023-01-20T02:37:30;99198.44;;;21.92;42.33
43312;BME280;30041;48.300;16.352;2023-01-20T02:43:09;99199.19;;;21.87;42.33
43312;BME280;30041;48.300;16.352;2023-01-20T02:48:23;99198.38;;;21.87;42.39
43312;BME280;30041;48.300;16.352;2023-01-20T02:53:33;99199.19;;;21.87;42.40
43312;BME280;30041;48.300;16.352;2023-01-20T02:56:01;99207.28;;;21.87;42.31
43312;BME280;30041;48.300;16.352;2023-01-20T02:58:37;99205.97;;;21.90;42.36
43312;BME280;30041;48.300;16.352;2023-01-20T03:01:09;99214.56;;;21.87;42.47
43312;BME280;30041;48.300;16.352;2023-01-20T03:03:38;99211.06;;;21.86;42.47
43312;BME280;30041;48.300;16.352;2023-01-20T03:06:12;99209.97;;;21.87;42.41
43312;BME280;30041;48.300;16.352;2023-01-20T03:08:39;99214.56;;;21.87;42.38
43312;BME280;30041;48.300;16.352;2023-01-20T03:11:06;99214.56;;;21.87;42.31
43312;BME280;30041;48.300;16.352;2023-01-20T03:13:53;99212.44;;;21.89;42.28
43312;BME280;30041;48.300;16.352;2023-01-20T03:16:23;99207.56;;;21.86;42.28
43312;BME280;30041;48.300;16.352;2023-01-20T03:18:51;99211.88;;;21.87;42.09
43312;BME280;30041;48.300;16.352;2023-01-20T03:21:17;99202.16;;;21.86;42.34
43312;BME280;30041;48.300;16.352;2023-01-20T03:23:46;99199.47;;;21.86;42.31
43312;BME280;30041;48.300;16.352;2023-01-20T03:26:15;99205.66;;;21.86;42.33
43312;BME280;30041;48.300;16.352;2023-01-20T03:28:41;99198.91;;;21.84;42.49
43312;BME280;30041;48.300;16.352;2023-01-20T03:31:16;99202.63;;;21.83;42.37
43312;BME280;30041;48.300;16.352;2023-01-20T03:33:43;99194.06;;;21.86;42.26
43312;BME280;30041;48.300;16.352;2023-01-20T03:36:12;99191.59;;;21.84;42.22
43312;BME280;30041;48.300;16.352;2023-01-20T03:38:39;99192.41;;;21.85;42.31
43312;BME280;30041;48.300;16.352;2023-01-20T03:43:56;99190.22;;;21.82;42.39
43312;BME280;30041;48.300;16.352;2023-01-20T03:46:51;99185.31;;;21.79;42.41
43312;BME280;30041;48.300;16.352;2023-01-20T03:52:11;99190.97;;;21.77;42.58
43312;BME280;30041;48.300;16.352;2023-01-20T03:54:53;99188.09;;;21.84;42.22
43312;BME280;30041;48.300;16.352;2023-01-20T03:57:25;99182.38;;;21.80;42.29
43312;BME280;30041;48.300;16.352;2023-01-20T03:59:55;99184.84;;;21.82;42.33
43312;BME280;30041;48.300;16.352;2023-01-20T04:02:22;99187.78;;;21.80;42.35
43312;BME280;30041;48.300;16.352;2023-01-20T04:04:51;99193.69;;;21.77;42.46
43312;BME280;30041;48.300;16.352;2023-01-20T04:07:23;99190.72;;;21.79;42.31
43312;BME280;30041;48.300;16.352;2023-01-20T04:09:52;99188.28;;;21.77;42.43
43312;BME280;30041;48.300;16.352;2023-01-20T04:12:18;99182.06;;;21.76;42.28
43312;BME280;30041;48.300;16.352;2023-01-20T04:14:44;99178.78;;;21.74;42.59
43312;BME280;30041;48.300;16.352;2023-01-20T04:17:10;99180.50;;;21.81;42.35
43312;BME280;30041;48.300;16.352;2023-01-20T04:19:36;99178.06;;;21.79;42.22
43312;BME280;30041;48.300;16.352;2023-01-20T04:22:18;99175.38;;;21.79;42.37
43312;BME280;30041;48.300;16.352;2023-01-20T04:25:02;99184.50;;;21.78;42.27
43312;BME280;30041;48.300;16.352;2023-01-20T04:27:29;99197.00;;;21.84;42.21
43312;BME280;30041;48.300;16.352;2023-01-20T04:29:55;99193.16;;;21.80;42.20
43312;BME280;30041;48.300;16.352;2023-01-20T04:32:20;99208.22;;;21.76;42.24
43312;BME280;30041;48.300;16.352;2023-01-20T04:34:49;99214.41;;;21.76;42.26
43312;BME280;30041;48.300;16.352;2023-01-20T04:37:15;99227.16;;;21.81;42.23
43312;BME280;30041;48.300;16.352;2023-01-20T04:39:40;99229.44;;;21.89;42.22
43312;BME280;30041;48.300;16.352;2023-01-20T04:42:06;99235.59;;;21.85;42.27
43312;BME280;30041;48.300;16.352;2023-01-20T04:44:32;99240.41;;;21.83;42.21
43312;BME280;30041;48.300;16.352;2023-01-20T04:46:57;99256.03;;;21.81;42.36
43312;BME280;30041;48.300;16.352;2023-01-20T04:49:23;99257.09;;;21.80;42.23
43312;BME280;30041;48.300;16.352;2023-01-20T04:51:48;99252.75;;;21.79;42.30
43312;BME280;30041;48.300;16.352;2023-01-20T04:54:14;99254.41;;;21.80;42.59
43312;BME280;30041;48.300;16.352;2023-01-20T04:56:42;99259.28;;;21.83;42.25
43312;BME280;30041;48.300;16.352;2023-01-20T04:59:08;99264.94;;;21.81;42.06
43312;BME280;30041;48.300;16.352;2023-01-20T05:01:33;99273.34;;;21.85;42.33
43312;BME280;30041;48.300;16.352;2023-01-20T05:03:59;99286.66;;;21.91;42.07
43312;BME280;30041;48.300;16.352;2023-01-20T05:06:25;99304.00;;;21.95;41.85
43312;BME280;30041;48.300;16.352;2023-01-20T05:08:50;99305.38;;;21.98;42.00
43312;BME280;30041;48.300;16.352;2023-01-20T05:11:16;99306.44;;;21.97;41.89
43312;BME280;30041;48.300;16.352;2023-01-20T05:13:41;99313.47;;;21.98;41.87
43312;BME280;30041;48.300;16.352;2023-01-20T05:16:08;99315.31;;;21.75;41.54
43312;BME280;30041;48.300;16.352;2023-01-20T05:18:34;99323.22;;;21.65;41.63
43312;BME280;30041;48.300;16.352;2023-01-20T05:21:00;99330.56;;;21.36;41.99
43312;BME280;30041;48.300;16.352;2023-01-20T05:23:25;99334.47;;;21.28;42.59
43312;BME280;30041;48.300;16.352;2023-01-20T05:25:52;99325.00;;;21.26;42.53
43312;BME280;30041;48.300;16.352;2023-01-20T05:28:18;99331.19;;;21.26;42.60
43312;BME280;30041;48.300;16.352;2023-01-20T05:30:44;99319.47;;;21.32;42.37
43312;BME280;30041;48.300;16.352;2023-01-20T05:33:09;99326.47;;;21.33;42.22
43312;BME280;30041;48.300;16.352;2023-01-20T05:35:37;99325.72;;;21.38;42.20
43312;BME280;30041;48.300;16.352;2023-01-20T05:38:03;99317.88;;;21.36;42.25
43312;BME280;30041;48.300;16.352;2023-01-20T05:40:28;99318.47;;;21.39;42.00
43312;BME280;30041;48.300;16.352;2023-01-20T05:42:58;99331.13;;;21.38;42.08
43312;BME280;30041;48.300;16.352;2023-01-20T05:45:23;99328.66;;;21.36;42.41
43312;BME280;30041;48.300;16.352;2023-01-20T05:47:56;99334.63;;;21.39;42.00
43312;BME280;30041;48.300;16.352;2023-01-20T05:50:21;99327.38;;;21.39;41.95
43312;BME280;30041;48.300;16.352;2023-01-20T05:52:47;99328.94;;;21.35;42.10
43312;BME280;30041;48.300;16.352;2023-01-20T05:55:12;99328.34;;;21.33;40.49
43312;BME280;30041;48.300;16.352;2023-01-20T05:57:38;99326.13;;;21.13;41.79
43312;BME280;30041;48.300;16.352;2023-01-20T06:00:05;99330.34;;;21.09;42.00
43312;BME280;30041;48.300;16.352;2023-01-20T06:02:30;99325.53;;;21.11;42.17
43312;BME280;30041;48.300;16.352;2023-01-20T06:04:56;99322.78;;;21.06;41.68
43312;BME280;30041;48.300;16.352;2023-01-20T06:07:22;99326.03;;;21.08;41.83
43312;BME280;30041;48.300;16.352;2023-01-20T06:09:47;99334.34;;;21.06;41.97
43312;BME280;30041;48.300;16.352;2023-01-20T06:12:13;99332.38;;;21.02;42.33
43312;BME280;30041;48.300;16.352;2023-01-20T06:14:38;99327.31;;;21.05;42.09
43312;BME280;30041;48.300;16.352;2023-01-20T06:17:04;99330.28;;;21.04;42.26
43312;BME280;30041;48.300;16.352;2023-01-20T06:19:29;99327.56;;;21.04;42.37
43312;BME280;30041;48.300;16.352;2023-01-20T06:21:55;99330.50;;;21.02;42.35
43312;BME280;30041;48.300;16.352;2023-01-20T06:24:21;99321.63;;;21.02;42.50
43312;BME280;30041;48.300;16.352;2023-01-20T06:26:49;99320.53;;;21.03;42.40
43312;BME280;30041;48.300;16.352;2023-01-20T06:29:15;99315.50;;;21.06;42.49
43312;BME280;30041;48.300;16.352;2023-01-20T06:31:40;99313.31;;;21.03;42.56
43312;BME280;30041;48.300;16.352;2023-01-20T06:34:06;99315.66;;;21.00;42.66
43312;BME280;30041;48.300;16.352;2023-01-20T06:36:31;99311.66;;;21.02;42.42
43312;BME280;30041;48.300;16.352;2023-01-20T06:38:57;99312.72;;;21.01;42.66
43312;BME280;30041;48.300;16.352;2023-01-20T06:41:22;99316.47;;;21.00;42.79
43312;BME280;30041;48.300;16.352;2023-01-20T06:43:49;99325.13;;;21.02;42.64
43312;BME280;30041;48.300;16.352;2023-01-20T06:46:15;99321.13;;;21.05;42.50
43312;BME280;30041;48.300;16.352;2023-01-20T06:48:41;99323.00;;;21.04;42.83
43312;BME280;30041;48.300;16.352;2023-01-20T06:51:15;99324.81;;;20.99;42.63
43312;BME280;30041;48.300;16.352;2023-01-20T06:53:41;99326.41;;;21.00;42.90
43312;BME280;30041;48.300;16.352;2023-01-20T06:56:08;99326.19;;;21.01;42.79
43312;BME280;30041;48.300;16.352;2023-01-20T06:58:34;99326.78;;;21.03;42.61
43312;BME280;30041;48.300;16.352;2023-01-20T07:01:23;99328.03;;;21.01;42.63
43312;BME280;30041;48.300;16.352;2023-01-20T07:03:50;99328.03;;;21.01;42.65
43312;BME280;30041;48.300;16.352;2023-01-20T07:06:34;99322.34;;;20.97;42.78
43312;BME280;30041;48.300;16.352;2023-01-20T07:09:01;99324.06;;;21.03;42.73
43312;BME280;30041;48.300;16.352;2023-01-20T07:11:29;99323.22;;;21.03;42.79
43312;BME280;30041;48.300;16.352;2023-01-20T07:13:55;99322.41;;;21.02;42.73
43312;BME280;30041;48.300;16.352;2023-01-20T07:16:20;99320.06;;;21.06;42.63
43312;BME280;30041;48.300;16.352;2023-01-20T07:18:47;99321.94;;;21.05;42.78
43312;BME280;30041;48.300;16.352;2023-01-20T07:21:13;99314.44;;;21.07;42.76
43312;BME280;30041;48.300;16.352;2023-01-20T07:23:39;99321.69;;;21.07;42.68
43312;BME280;30041;48.300;16.352;2023-01-20T07:26:09;99328.72;;;21.08;42.42
43312;BME280;30041;48.300;16.352;2023-01-20T07:28:36;99329.78;;;21.07;42.69
43312;BME280;30041;48.300;16.352;2023-01-20T07:31:06;99335.97;;;21.07;42.58
43312;BME280;30041;48.300;16.352;2023-01-20T07:33:33;99331.66;;;21.06;42.82
43312;BME280;30041;48.300;16.352;2023-01-20T07:35:59;99336.81;;;21.08;42.75
43312;BME280;30041;48.300;16.352;2023-01-20T07:38:25;99334.13;;;21.08;42.61
43312;BME280;30041;48.300;16.352;2023-01-20T07:40:50;99333.53;;;21.06;42.65
43312;BME280;30041;48.300;16.352;2023-01-20T07:43:16;99339.16;;;21.04;42.91
43312;BME280;30041;48.300;16.352;2023-01-20T07:45:41;99336.72;;;21.03;42.75
43312;BME280;30041;48.300;16.352;2023-01-20T07:48:07;99335.66;;;21.04;42.84
43312;BME280;30041;48.300;16.352;2023-01-20T07:50:36;99346.66;;;21.02;42.87
43312;BME280;30041;48.300;16.352;2023-01-20T07:53:02;99348.19;;;21.10;42.34
43312;BME280;30041;48.300;16.352;2023-01-20T07:55:31;99363.78;;;21.25;42.26
43312;BME280;30041;48.300;16.352;2023-01-20T07:57:57;99364.44;;;21.32;42.09
43312;BME280;30041;48.300;16.352;2023-01-20T08:00:22;99376.28;;;21.31;42.24
43312;BME280;30041;48.300;16.352;2023-01-20T08:02:48;99375.81;;;21.34;42.13
43312;BME280;30041;48.300;16.352;2023-01-20T08:05:14;99368.56;;;21.34;42.04
43312;BME280;30041;48.300;16.352;2023-01-20T08:07:39;99379.06;;;21.19;42.49
43312;BME280;30041;48.300;16.352;2023-01-20T08:10:05;99376.25;;;21.14;42.40
43312;BME280;30041;48.300;16.352;2023-01-20T08:12:30;99375.56;;;21.35;41.96
43312;BME280;30041;48.300;16.352;2023-01-20T08:14:56;99366.97;;;21.39;42.11
43312;BME280;30041;48.300;16.352;2023-01-20T08:17:21;99372.75;;;21.42;42.15
43312;BME280;30041;48.300;16.352;2023-01-20T08:19:47;99370.41;;;21.46;42.18
43312;BME280;30041;48.300;16.352;2023-01-20T08:22:13;99377.41;;;21.47;42.32
43312;BME280;30041;48.300;16.352;2023-01-20T08:24:38;99385.78;;;21.33;42.57
43312;BME280;30041;48.300;16.352;2023-01-20T08:27:04;99403.47;;;21.29;42.53
43312;BME280;30041;48.300;16.352;2023-01-20T08:29:29;99407.84;;;21.30;42.43
43312;BME280;30041;48.300;16.352;2023-01-20T08:31:56;99418.19;;;21.22;42.62
43312;BME280;30041;48.300;16.352;2023-01-20T08:34:22;99420.78;;;21.17;42.65
43312;BME280;30041;48.300;16.352;2023-01-20T08:36:48;99417.41;;;21.09;42.89
43312;BME280;30041;48.300;16.352;2023-01-20T08:39:14;99418.47;;;21.08;42.97
43312;BME280;30041;48.300;16.352;2023-01-20T08:41:42;99419.28;;;21.09;42.87
43312;BME280;30041;48.300;16.352;2023-01-20T08:44:09;99415.28;;;21.11;42.58
43312;BME280;30041;48.300;16.352;2023-01-20T08:46:36;99417.16;;;21.11;42.60
43312;BME280;30041;48.300;16.352;2023-01-20T08:49:06;99425.97;;;21.06;42.79
43312;BME280;30041;48.300;16.352;2023-01-20T08:51:32;99430.53;;;21.06;42.81
43312;BME280;30041;48.300;16.352;2023-01-20T08:53:58;99436.75;;;21.06;42.57
43312;BME280;30041;48.300;16.352;2023-01-20T08:56:24;99438.03;;;21.04;42.73
43312;BME280;30041;48.300;16.352;2023-01-20T08:58:50;99445.88;;;21.05;42.84
43312;BME280;30041;48.300;16.352;2023-01-20T09:01:21;99446.72;;;21.06;42.77
43312;BME280;30041;48.300;16.352;2023-01-20T09:03:47;99444.47;;;21.03;42.93
43312;BME280;30041;48.300;16.352;2023-01-20T09:06:13;99453.13;;;21.05;42.70
43312;BME280;30041;48.300;16.352;2023-01-20T09:08:39;99454.66;;;21.01;42.66
43312;BME280;30041;48.300;16.352;2023-01-20T09:11:07;99464.50;;;21.07;42.16
43312;BME280;30041;48.300;16.352;2023-01-20T09:13:33;99457.94;;;21.03;42.77
43312;BME280;30041;48.300;16.352;2023-01-20T09:15:58;99456.66;;;21.05;42.71
43312;BME280;30041;48.300;16.352;2023-01-20T09:18:24;99446.94;;;21.04;42.59
43312;BME280;30041;48.300;16.352;2023-01-20T09:20:50;99449.28;;;21.01;42.87
43312;BME280;30041;48.300;16.352;2023-01-20T09:23:16;99455.25;;;21.03;42.75
43312;BME280;30041;48.300;16.352;2023-01-20T09:25:42;99455.03;;;21.04;42.39
43312;BME280;30041;48.300;16.352;2023-01-20T09:28:07;99458.78;;;21.03;42.52
43312;BME280;30041;48.300;16.352;2023-01-20T09:30:35;99449.06;;;21.02;42.51
43312;BME280;30041;48.300;16.352;2023-01-20T09:33:01;99462.75;;;21.01;42.74
43312;BME280;30041;48.300;16.352;2023-01-20T09:35:26;99453.84;;;21.00;42.76
43312;BME280;30041;48.300;16.352;2023-01-20T09:37:52;99456.66;;;21.05;42.53
43312;BME280;30041;48.300;16.352;2023-01-20T09:40:21;99453.53;;;21.25;41.93
43312;BME280;30041;48.300;16.352;2023-01-20T09:43:04;99442.88;;;21.30;42.01
43312;BME280;30041;48.300;16.352;2023-01-20T09:45:37;99456.22;;;21.37;42.13
43312;BME280;30041;48.300;16.352;2023-01-20T09:48:15;99457.59;;;21.40;42.03
43312;BME280;30041;48.300;16.352;2023-01-20T09:50:49;99462.78;;;21.41;41.82
43312;BME280;30041;48.300;16.352;2023-01-20T09:53:33;99461.34;;;21.39;41.95
43312;BME280;30041;48.300;16.352;2023-01-20T09:56:12;99451.50;;;21.44;41.80
43312;BME280;30041;48.300;16.352;2023-01-20T10:01:41;99465.47;;;21.41;42.20
43312;BME280;30041;48.300;16.352;2023-01-20T10:04:25;99469.00;;;21.42;41.76
43312;BME280;30041;48.300;16.352;2023-01-20T10:09:27;99451.75;;;21.43;41.96
43312;BME280;30041;48.300;16.352;2023-01-20T10:12:10;99456.31;;;21.42;42.25
43312;BME280;30041;48.300;16.352;2023-01-20T10:14:59;99456.97;;;21.49;41.98
43312;BME280;30041;48.300;16.352;2023-01-20T10:17:36;99453.72;;;21.47;41.90
43312;BME280;30041;48.300;16.352;2023-01-20T10:20:14;99454.78;;;21.46;41.93
43312;BME280;30041;48.300;16.352;2023-01-20T10:23:02;99453.41;;;21.44;42.07
43312;BME280;30041;48.300;16.352;2023-01-20T10:28:12;99451.16;;;21.41;42.02
43312;BME280;30041;48.300;16.352;2023-01-20T10:30:39;99448.47;;;21.41;42.12
43312;BME280;30041;48.300;16.352;2023-01-20T10:33:12;99444.22;;;21.45;42.08
43312;BME280;30041;48.300;16.352;2023-01-20T10:35:50;99444.22;;;21.45;42.15
43312;BME280;30041;48.300;16.352;2023-01-20T10:38:25;99444.22;;;21.45;41.78
43312;BME280;30041;48.300;16.352;2023-01-20T10:41:32;99446.53;;;21.24;41.84
43312;BME280;30041;48.300;16.352;2023-01-20T10:44:00;99448.41;;;21.24;41.91
43312;BME280;30041;48.300;16.352;2023-01-20T10:46:39;99448.84;;;21.32;41.73
43312;BME280;30041;48.300;16.352;2023-01-20T10:52:22;99440.59;;;21.39;41.64
43312;BME280;30041;48.300;16.352;2023-01-20T10:57:35;99438.28;;;21.31;42.01
43312;BME280;30041;48.300;16.352;2023-01-20T11:00:04;99442.03;;;21.42;41.76
43312;BME280;30041;48.300;16.352;2023-01-20T11:02:32;99426.28;;;21.50;41.89
43312;BME280;30041;48.300;16.352;2023-01-20T11:05:09;99429.38;;;21.42;41.93
43312;BME280;30041;48.300;16.352;2023-01-20T11:07:40;99433.53;;;21.21;42.16
43312;BME280;30041;48.300;16.352;2023-01-20T11:10:25;99412.69;;;21.17;42.05
43312;BME280;30041;48.300;16.352;2023-01-20T11:12:54;99410.56;;;21.19;42.17
43312;BME280;30041;48.300;16.352;2023-01-20T11:15:24;99411.47;;;21.24;42.06
43312;BME280;30041;48.300;16.352;2023-01-20T11:20:47;99405.09;;;21.13;42.26
43312;BME280;30041;48.300;16.352;2023-01-20T11:26:02;99398.06;;;21.12;42.14
43312;BME280;30041;48.300;16.352;2023-01-20T11:28:54;99382.94;;;21.11;42.27
43312;BME280;30041;48.300;16.352;2023-01-20T11:31:32;99390.56;;;21.14;41.94
43312;BME280;30041;48.300;16.352;2023-01-20T11:34:01;99381.63;;;21.14;42.08
43312;BME280;30041;48.300;16.352;2023-01-20T11:36:27;99384.59;;;21.12;42.33
43312;BME280;30041;48.300;16.352;2023-01-20T11:38:54;99381.63;;;21.14;42.23
43312;BME280;30041;48.300;16.352;2023-01-20T11:41:23;99391.84;;;21.12;42.21
43312;BME280;30041;48.300;16.352;2023-01-20T11:43:51;99393.50;;;21.13;42.06
43312;BME280;30041;48.300;16.352;2023-01-20T11:46:23;99399.22;;;21.17;41.89
43312;BME280;30041;48.300;16.352;2023-01-20T11:48:49;99390.31;;;21.16;42.11
43312;BME280;30041;48.300;16.352;2023-01-20T11:51:25;99389.50;;;21.15;42.17
43312;BME280;30041;48.300;16.352;2023-01-20T11:54:06;99381.91;;;21.12;42.04
43312;BME280;30041;48.300;16.352;2023-01-20T11:56:37;99391.84;;;21.12;42.25
43312;BME280;30041;48.300;16.352;2023-01-20T11:59:18;99392.81;;;21.06;41.37
43312;BME280;30041;48.300;16.352;2023-01-20T12:01:54;99390.13;;;21.06;41.23
43312;BME280;30041;48.300;16.352;2023-01-20T12:07:18;99387.09;;;21.02;42.19
43312;BME280;30041;48.300;16.352;2023-01-20T12:09:51;99375.59;;;21.07;41.78
43312;BME280;30041;48.300;16.352;2023-01-20T12:12:27;99379.44;;;21.11;41.76
43312;BME280;30041;48.300;16.352;2023-01-20T12:15:15;99372.28;;;21.17;41.67
43312;BME280;30041;48.300;16.352;2023-01-20T12:18:04;99378.47;;;21.17;41.82
43312;BME280;30041;48.300;16.352;2023-01-20T12:20:48;99374.03;;;21.11;41.75
43312;BME280;30041;48.300;16.352;2023-01-20T12:23:40;99382.84;;;21.06;41.38
43312;BME280;30041;48.300;16.352;2023-01-20T12:26:08;99386.06;;;21.20;41.28
43312;BME280;30041;48.300;16.352;2023-01-20T12:31:36;99396.22;;;21.30;41.20
43312;BME280;30041;48.300;16.352;2023-01-20T12:34:04;99392.25;;;21.32;41.25
43312;BME280;30041;48.300;16.352;2023-01-20T12:37:06;99401.94;;;21.33;41.49
43312;BME280;30041;48.300;16.352;2023-01-20T12:43:07;99404.06;;;21.31;41.60
43312;BME280;30041;48.300;16.352;2023-01-20T12:48:43;99397.78;;;21.26;41.42
43312;BME280;30041;48.300;16.352;2023-01-20T12:56:40;99391.09;;;21.28;41.29
43312;BME280;30041;48.300;16.352;2023-01-20T12:59:22;99394.81;;;21.27;41.55
43312;BME280;30041;48.300;16.352;2023-01-20T13:04:57;99393.69;;;21.23;41.66
43312;BME280;30041;48.300;16.352;2023-01-20T13:10:22;99386.72;;;21.27;41.88
43312;BME280;30041;48.300;16.352;2023-01-20T13:16:02;99394.34;;;21.30;41.97
43312;BME280;30041;48.300;16.352;2023-01-20T13:19:00;99403.25;;;21.31;41.92
43312;BME280;30041;48.300;16.352;2023-01-20T13:21:31;99391.09;;;21.28;41.81
43312;BME280;30041;48.300;16.352;2023-01-20T13:23:59;99388.47;;;21.33;41.88
43312;BME280;30041;48.300;16.352;2023-01-20T13:26:27;99397.94;;;21.36;41.98
43312;BME280;30041;48.300;16.352;2023-01-20T13:28:56;99399.81;;;21.35;42.07
43312;BME280;30041;48.300;16.352;2023-01-20T13:31:44;99403.25;;;21.31;42.28
43312;BME280;30041;48.300;16.352;2023-01-20T13:41:54;99401.84;;;21.28;42.37
43312;BME280;30041;48.300;16.352;2023-01-20T13:44:35;99407.97;;;21.24;42.33
43312;BME280;30041;48.300;16.352;2023-01-20T13:47:02;99405.38;;;21.29;42.25
43312;BME280;30041;48.300;16.352;2023-01-20T13:49:52;99407.16;;;21.23;42.80
43312;BME280;30041;48.300;16.352;2023-01-20T13:55:48;99407.72;;;21.25;42.59
43312;BME280;30041;48.300;16.352;2023-01-20T13:58:30;99411.84;;;21.28;42.39
43312;BME280;30041;48.300;16.352;2023-01-20T14:01:04;99407.91;;;21.35;42.15
43312;BME280;30041;48.300;16.352;2023-01-20T14:03:31;99418.13;;;21.33;42.05
43312;BME280;30041;48.300;16.352;2023-01-20T14:08:44;99425.63;;;21.31;42.10
43312;BME280;30041;48.300;16.352;2023-01-20T14:11:12;99432.56;;;21.27;42.24
43312;BME280;30041;48.300;16.352;2023-01-20T14:13:39;99430.69;;;21.28;42.40
43312;BME280;30041;48.300;16.352;2023-01-20T14:16:15;99426.50;;;21.20;42.56
43312;BME280;30041;48.300;16.352;2023-01-20T14:18:41;99430.84;;;21.21;42.50
43312;BME280;30041;48.300;16.352;2023-01-20T14:21:37;99425.34;;;21.16;42.56
43312;BME280;30041;48.300;16.352;2023-01-20T14:24:03;99419.38;;;21.14;42.73
43312;BME280;30041;48.300;16.352;2023-01-20T14:26:29;99421.03;;;21.15;42.65
43312;BME280;30041;48.300;16.352;2023-01-20T14:29:00;99423.47;;;21.17;42.60
43312;BME280;30041;48.300;16.352;2023-01-20T14:31:38;99429.91;;;21.15;42.70